Time;durP1;ratioP1;P1;durP2;ratioP2;P2;SDS_P1;SDS_P2;PMS_P1;PMS_P2;Temp;Humidity;BMP_temperature;BMP_pressure;BME280_temperature;BME280_humidity;BME280_pressure;Samples;Min_cycle;Max_cycle;Signal;HPM_P1;HPM_P2
2022/04/02 00:02:20;;;;;;;5.45;4.20;;;;;;;;;;5042273;28;20040;-47
2022/04/02 00:04:46;;;;;;;5.43;4.07;;;;;;;;;;5055417;28;20047;-50
2022/04/02 00:07:12;;;;;;;4.57;4.00;;;;;;;;;;5049442;28;20397;-47
2022/04/02 00:09:39;;;;;;;6.22;4.78;;;;;;;;;;5049643;28;20039;-48
2022/04/02 00:12:05;;;;;;;6.20;4.85;;;;;;;;;;5048222;28;20496;-47
2022/04/02 00:14:31;;;;;;;6.68;5.50;;;;;;;;;;5049212;28;20484;-47
2022/04/02 00:16:58;;;;;;;6.50;5.15;;;;;;;;;;5049425;28;20028;-50
2022/04/02 00:19:24;;;;;;;6.22;5.45;;;;;;;;;;5049558;28;20488;-51
2022/04/02 00:21:51;;;;;;;6.15;5.55;;;;;;;;;;5036151;28;20785;-49
2022/04/02 00:24:17;;;;;;;7.40;5.82;;;;;;;;;;5029219;28;20099;-50
2022/04/02 00:26:43;;;;;;;6.20;5.13;;;;;;;;;;5028975;28;20025;-51
2022/04/02 00:29:11;;;;;;;5.63;4.93;;;;;;;;;;5029952;28;20080;-47
2022/04/02 00:31:37;;;;;;;7.78;6.32;;;;;;;;;;5029678;28;20060;-47
2022/04/02 00:34:03;;;;;;;8.20;6.95;;;;;;;;;;5029258;28;20492;-49
2022/04/02 00:36:34;;;;;;;10.35;7.68;;;;;;;;;;5028944;28;21164;-48
2022/04/02 00:39:00;;;;;;;7.10;6.30;;;;;;;;;;5029536;28;20467;-47
2022/04/02 00:41:27;;;;;;;7.72;6.50;;;;;;;;;;5036376;28;20024;-47
2022/04/02 00:44:01;;;;;;;8.70;6.70;;;;;;;;;;5048922;28;20025;-50
2022/04/02 00:46:27;;;;;;;7.72;6.55;;;;;;;;;;5048805;28;20033;-47
2022/04/02 00:48:54;;;;;;;7.88;6.53;;;;;;;;;;5048756;28;20036;-47
2022/04/02 00:51:21;;;;;;;9.32;6.68;;;;;;;;;;5043135;28;20465;-50
2022/04/02 00:53:49;;;;;;;8.25;6.85;;;;;;;;;;5048405;28;20060;-51
2022/04/02 00:56:15;;;;;;;8.43;6.47;;;;;;;;;;5048929;28;20016;-49
2022/04/02 00:58:42;;;;;;;8.68;6.97;;;;;;;;;;5048495;28;20381;-48
2022/04/02 01:01:08;;;;;;;9.25;7.25;;;;;;;;;;5029585;28;20036;-49
2022/04/02 01:03:36;;;;;;;10.10;8.07;;;;;;;;;;5028377;28;20623;-46
2022/04/02 01:06:03;;;;;;;12.13;9.05;;;;;;;;;;5028405;28;20029;-48
2022/04/02 01:08:29;;;;;;;12.50;9.15;;;;;;;;;;5028245;28;20030;-47
2022/04/02 01:10:59;;;;;;;13.00;9.45;;;;;;;;;;5028303;28;20037;-50
2022/04/02 01:13:27;;;;;;;12.13;9.18;;;;;;;;;;5028144;28;20053;-47
2022/04/02 01:15:54;;;;;;;11.48;8.40;;;;;;;;;;5027344;28;20025;-48
2022/04/02 01:18:20;;;;;;;15.93;11.32;;;;;;;;;;5028041;28;20047;-47
2022/04/02 01:20:46;;;;;;;14.07;10.57;;;;;;;;;;5029410;28;20454;-47
2022/04/02 01:23:12;;;;;;;15.73;11.48;;;;;;;;;;5028061;28;20030;-47
2022/04/02 01:25:39;;;;;;;16.35;11.48;;;;;;;;;;5028574;28;20042;-49
2022/04/02 01:28:05;;;;;;;16.50;11.45;;;;;;;;;;5028994;28;20057;-49
2022/04/02 01:30:32;;;;;;;19.33;12.82;;;;;;;;;;5041859;28;20096;-49
2022/04/02 01:32:59;;;;;;;18.15;12.35;;;;;;;;;;5048105;28;20442;-49
2022/04/02 01:35:26;;;;;;;18.80;13.88;;;;;;;;;;5048046;28;20382;-49
2022/04/02 01:37:53;;;;;;;20.30;13.25;;;;;;;;;;5047434;28;20032;-45
2022/04/02 01:40:19;;;;;;;18.73;12.50;;;;;;;;;;5047786;28;20029;-49
2022/04/02 01:42:46;;;;;;;16.48;10.88;;;;;;;;;;5045835;28;20031;-48
2022/04/02 01:45:13;;;;;;;17.27;11.43;;;;;;;;;;5030497;28;20032;-46
2022/04/02 01:47:39;;;;;;;14.75;11.18;;;;;;;;;;5028727;28;20492;-49
2022/04/02 01:50:06;;;;;;;15.52;11.32;;;;;;;;;;5026541;28;20032;-50
2022/04/02 01:52:33;;;;;;;17.08;11.43;;;;;;;;;;5027406;28;20105;-48
2022/04/02 01:54:59;;;;;;;17.20;11.85;;;;;;;;;;5027848;28;20484;-46
2022/04/02 01:57:25;;;;;;;17.00;12.90;;;;;;;;;;5027778;28;20083;-46
2022/04/02 01:59:51;;;;;;;18.42;12.57;;;;;;;;;;5036702;28;20051;-46
2022/04/02 02:02:20;;;;;;;16.52;11.98;;;;;;;;;;5047351;28;20033;-46
2022/04/02 02:04:46;;;;;;;17.55;12.52;;;;;;;;;;5028402;28;20034;-48
2022/04/02 02:07:12;;;;;;;16.73;11.60;;;;;;;;;;5027444;28;20040;-48
2022/04/02 02:09:38;;;;;;;15.80;11.52;;;;;;;;;;5027835;28;20029;-49
2022/04/02 02:12:05;;;;;;;16.23;11.10;;;;;;;;;;5027577;28;20079;-50
2022/04/02 02:14:31;;;;;;;16.95;11.55;;;;;;;;;;5026978;28;20026;-47
2022/04/02 02:16:58;;;;;;;17.02;12.30;;;;;;;;;;5027163;28;20034;-48
2022/04/02 02:19:24;;;;;;;16.92;11.90;;;;;;;;;;5027260;28;20033;-47
2022/04/02 02:21:51;;;;;;;15.25;11.20;;;;;;;;;;5027154;28;20075;-48
2022/04/02 02:24:17;;;;;;;17.67;11.95;;;;;;;;;;5027404;28;20151;-46
2022/04/02 02:26:44;;;;;;;17.20;12.52;;;;;;;;;;5027019;28;20025;-47
2022/04/02 02:29:10;;;;;;;16.40;12.13;;;;;;;;;;5027756;28;20036;-46
2022/04/02 02:31:36;;;;;;;17.75;12.80;;;;;;;;;;5027561;28;20155;-47
2022/04/02 02:36:49;;;;;;;16.38;11.90;;;;;;;;;;5046867;28;20450;-47
2022/04/02 02:39:15;;;;;;;15.77;11.95;;;;;;;;;;5046997;28;20078;-49
2022/04/02 02:41:41;;;;;;;18.83;12.35;;;;;;;;;;5043334;28;20037;-46
2022/04/02 02:44:08;;;;;;;18.58;13.50;;;;;;;;;;5034699;28;20541;-47
2022/04/02 02:46:35;;;;;;;16.80;11.88;;;;;;;;;;5024599;28;20038;-49
2022/04/02 02:49:01;;;;;;;16.85;11.95;;;;;;;;;;5026104;28;20473;-49
2022/04/02 02:51:28;;;;;;;14.88;11.05;;;;;;;;;;5026206;28;20461;-49
2022/04/02 02:53:54;;;;;;;17.05;11.48;;;;;;;;;;5026410;28;20036;-46
2022/04/02 02:56:20;;;;;;;14.15;10.05;;;;;;;;;;5026560;28;20794;-47
2022/04/02 02:58:46;;;;;;;15.27;10.88;;;;;;;;;;5026556;28;20025;-48
2022/04/02 03:01:12;;;;;;;13.23;9.88;;;;;;;;;;5026623;28;20056;-47
2022/04/02 03:03:39;;;;;;;15.98;11.50;;;;;;;;;;5025728;28;20025;-49
2022/04/02 03:06:05;;;;;;;17.35;12.55;;;;;;;;;;5025330;28;20057;-46
2022/04/02 03:08:31;;;;;;;20.52;12.45;;;;;;;;;;5025606;28;20515;-46
2022/04/02 03:10:58;;;;;;;15.23;11.45;;;;;;;;;;5026381;28;20040;-46
2022/04/02 03:13:24;;;;;;;18.33;12.75;;;;;;;;;;5026469;28;20021;-46
2022/04/02 03:15:51;;;;;;;17.70;12.73;;;;;;;;;;5030563;28;20033;-47
2022/04/02 03:18:18;;;;;;;18.20;12.23;;;;;;;;;;5046142;28;20047;-50
2022/04/02 03:20:44;;;;;;;18.77;12.70;;;;;;;;;;5046217;28;20021;-46
2022/04/02 03:23:11;;;;;;;16.60;12.23;;;;;;;;;;5046205;28;20561;-46
2022/04/02 03:25:37;;;;;;;17.05;11.57;;;;;;;;;;5031638;28;20084;-48
2022/04/02 03:28:04;;;;;;;16.15;11.13;;;;;;;;;;5026294;28;20022;-46
2022/04/02 03:30:30;;;;;;;14.27;10.07;;;;;;;;;;5024490;28;20109;-47
2022/04/02 03:32:57;;;;;;;16.48;10.75;;;;;;;;;;5026060;28;20038;-46
2022/04/02 03:35:24;;;;;;;14.18;10.65;;;;;;;;;;5025863;28;20065;-46
2022/04/02 03:37:51;;;;;;;15.40;11.68;;;;;;;;;;5025515;28;20060;-49
2022/04/02 03:40:20;;;;;;;15.45;10.63;;;;;;;;;;5026043;28;20065;-48
2022/04/02 03:42:46;;;;;;;16.40;11.43;;;;;;;;;;5025390;28;20032;-48
2022/04/02 03:45:16;;;;;;;16.20;12.10;;;;;;;;;;5026141;28;20038;-45
2022/04/02 03:47:43;;;;;;;16.65;12.73;;;;;;;;;;5026007;28;20029;-47
2022/04/02 03:50:09;;;;;;;19.33;13.82;;;;;;;;;;5026752;28;20018;-47
2022/04/02 03:52:36;;;;;;;19.02;13.60;;;;;;;;;;5025631;28;20033;-46
2022/04/02 03:55:04;;;;;;;17.70;12.35;;;;;;;;;;5031260;28;20792;-47
2022/04/02 03:57:31;;;;;;;17.40;12.43;;;;;;;;;;5045902;28;20061;-46
2022/04/02 03:59:57;;;;;;;16.60;12.25;;;;;;;;;;5046021;28;20376;-49
2022/04/02 04:02:24;;;;;;;14.93;11.18;;;;;;;;;;5045402;28;20506;-47
2022/04/02 04:04:50;;;;;;;13.43;10.48;;;;;;;;;;5041053;28;20029;-48
2022/04/02 04:07:16;;;;;;;13.65;9.32;;;;;;;;;;5038777;28;20060;-46
2022/04/02 04:09:42;;;;;;;13.20;9.55;;;;;;;;;;5046067;28;20040;-47
2022/04/02 04:12:10;;;;;;;12.40;9.45;;;;;;;;;;5046288;28;20040;-47
2022/04/02 04:14:36;;;;;;;15.05;10.68;;;;;;;;;;5043235;28;20029;-48
2022/04/02 04:17:02;;;;;;;13.73;10.50;;;;;;;;;;5025671;28;20141;-50
2022/04/02 04:19:29;;;;;;;13.68;10.43;;;;;;;;;;5025587;28;20033;-48
2022/04/02 04:21:56;;;;;;;13.00;9.65;;;;;;;;;;5025703;28;20057;-50
2022/04/02 04:24:22;;;;;;;14.52;10.43;;;;;;;;;;5024793;28;20030;-48
2022/04/02 04:26:48;;;;;;;13.02;9.93;;;;;;;;;;5026019;28;20079;-48
2022/04/02 04:29:14;;;;;;;14.55;9.63;;;;;;;;;;5025500;28;20442;-48
2022/04/02 04:31:40;;;;;;;13.25;9.77;;;;;;;;;;5026213;28;20140;-47
2022/04/02 04:34:07;;;;;;;12.23;9.82;;;;;;;;;;5025887;28;20049;-50
2022/04/02 04:36:33;;;;;;;13.73;9.75;;;;;;;;;;5041461;28;20404;-46
2022/04/02 04:38:59;;;;;;;12.80;9.18;;;;;;;;;;5045395;28;20074;-48
2022/04/02 04:41:26;;;;;;;12.13;9.05;;;;;;;;;;5045117;28;20063;-47
2022/04/02 04:43:52;;;;;;;11.88;9.13;;;;;;;;;;5035752;28;20036;-49
2022/04/02 04:46:19;;;;;;;11.75;8.90;;;;;;;;;;5024978;28;20714;-47
2022/04/02 04:48:46;;;;;;;11.63;8.27;;;;;;;;;;5025588;28;20155;-47
2022/04/02 04:51:14;;;;;;;12.55;8.73;;;;;;;;;;5027091;28;20025;-50
2022/04/02 04:53:40;;;;;;;14.27;9.88;;;;;;;;;;5035697;28;20035;-46
2022/04/02 04:56:06;;;;;;;13.05;8.90;;;;;;;;;;5034884;28;20084;-46
2022/04/02 04:58:32;;;;;;;12.07;9.15;;;;;;;;;;5028564;28;20977;-50
2022/04/02 05:00:59;;;;;;;11.90;9.30;;;;;;;;;;5028873;28;20562;-47
2022/04/02 05:03:26;;;;;;;13.20;9.32;;;;;;;;;;5028587;28;20068;-47
2022/04/02 05:05:53;;;;;;;13.60;9.75;;;;;;;;;;5036438;28;20040;-47
2022/04/02 05:08:21;;;;;;;12.23;9.35;;;;;;;;;;5042231;28;20115;-48
2022/04/02 05:10:47;;;;;;;12.35;9.15;;;;;;;;;;5029014;28;20036;-51
2022/04/02 05:13:14;;;;;;;14.27;9.57;;;;;;;;;;5028622;28;20041;-51
2022/04/02 05:15:47;;;;;;;12.43;9.82;;;;;;;;;;5029122;28;20037;-47
2022/04/02 05:18:13;;;;;;;12.90;9.82;;;;;;;;;;5028711;28;20041;-46
2022/04/02 05:20:40;;;;;;;13.48;10.13;;;;;;;;;;5029108;28;20041;-49
2022/04/02 05:23:06;;;;;;;13.25;9.50;;;;;;;;;;5028440;28;20039;-48
2022/04/02 05:25:33;;;;;;;13.18;9.02;;;;;;;;;;5028246;28;20039;-46
2022/04/02 05:28:00;;;;;;;12.88;9.27;;;;;;;;;;5028390;28;20165;-51
2022/04/02 05:30:29;;;;;;;12.57;9.05;;;;;;;;;;5027974;28;20497;-46
2022/04/02 05:32:55;;;;;;;10.80;7.95;;;;;;;;;;5028423;28;20032;-46
2022/04/02 05:35:24;;;;;;;11.35;8.80;;;;;;;;;;5036821;28;20052;-48
2022/04/02 05:37:50;;;;;;;10.77;8.18;;;;;;;;;;5034231;28;20124;-48
2022/04/02 05:40:17;;;;;;;12.38;9.43;;;;;;;;;;5028034;28;20041;-48
2022/04/02 05:42:43;;;;;;;12.52;8.88;;;;;;;;;;5027870;28;20037;-46
2022/04/02 05:45:09;;;;;;;15.10;9.77;;;;;;;;;;5028292;28;20034;-49
2022/04/02 05:47:46;;;;;;;12.48;9.35;;;;;;;;;;5027721;28;20068;-49
2022/04/02 05:50:13;;;;;;;12.60;9.40;;;;;;;;;;5042472;28;20431;-46
2022/04/02 05:52:40;;;;;;;13.20;10.10;;;;;;;;;;5028676;28;20040;-47
2022/04/02 05:55:10;;;;;;;13.45;10.57;;;;;;;;;;5027377;28;20503;-46
2022/04/02 05:57:37;;;;;;;14.40;10.90;;;;;;;;;;5027736;28;20091;-47
2022/04/02 06:00:08;;;;;;;15.05;11.30;;;;;;;;;;5027158;28;20780;-50
2022/04/02 06:02:35;;;;;;;14.30;10.40;;;;;;;;;;5027608;28;20432;-47
2022/04/02 06:05:01;;;;;;;13.05;9.88;;;;;;;;;;5027911;28;20418;-48
2022/04/02 06:07:27;;;;;;;13.65;9.32;;;;;;;;;;5027355;28;20049;-49
2022/04/02 06:09:54;;;;;;;16.83;12.00;;;;;;;;;;5028561;28;20029;-50
2022/04/02 06:12:20;;;;;;;13.77;10.10;;;;;;;;;;5027027;28;20044;-49
2022/04/02 06:14:46;;;;;;;13.98;10.43;;;;;;;;;;5027102;28;20032;-50
2022/04/02 06:17:13;;;;;;;12.85;9.93;;;;;;;;;;5027560;28;20030;-50
2022/04/02 06:19:39;;;;;;;14.05;10.70;;;;;;;;;;5027864;28;20044;-49
2022/04/02 06:22:06;;;;;;;14.85;11.63;;;;;;;;;;5027535;28;20029;-46
2022/04/02 06:24:33;;;;;;;13.57;10.10;;;;;;;;;;5026900;28;20039;-48
2022/04/02 06:26:59;;;;;;;14.25;10.25;;;;;;;;;;5027328;28;20017;-50
2022/04/02 06:29:26;;;;;;;13.02;9.85;;;;;;;;;;5026959;28;20080;-49
2022/04/02 06:31:52;;;;;;;13.45;10.32;;;;;;;;;;5027224;28;20017;-48
2022/04/02 06:34:18;;;;;;;12.75;9.70;;;;;;;;;;5025754;28;20033;-50
2022/04/02 06:36:44;;;;;;;14.43;10.23;;;;;;;;;;5030763;28;20108;-50
2022/04/02 06:39:14;;;;;;;15.00;11.30;;;;;;;;;;5037690;28;20041;-49
2022/04/02 06:41:40;;;;;;;14.05;9.52;;;;;;;;;;5027336;28;20040;-49
2022/04/02 06:44:08;;;;;;;13.18;10.38;;;;;;;;;;5026656;28;20033;-47
2022/04/02 06:46:35;;;;;;;15.23;10.35;;;;;;;;;;5029308;28;20049;-48
2022/04/02 06:49:01;;;;;;;13.60;9.82;;;;;;;;;;5025522;28;20362;-47
2022/04/02 06:51:27;;;;;;;14.98;11.15;;;;;;;;;;5043825;28;20017;-50
2022/04/02 06:53:53;;;;;;;14.77;10.27;;;;;;;;;;5046608;28;20522;-48
2022/04/02 06:56:20;;;;;;;15.43;11.75;;;;;;;;;;5044261;28;20040;-48
2022/04/02 06:58:46;;;;;;;15.05;10.63;;;;;;;;;;5046553;28;20029;-47
2022/04/02 07:01:12;;;;;;;13.02;9.85;;;;;;;;;;5046582;28;20120;-47
2022/04/02 07:03:39;;;;;;;14.52;10.10;;;;;;;;;;5046890;28;20029;-47
2022/04/02 07:06:05;;;;;;;12.73;9.70;;;;;;;;;;5042824;28;20025;-48
2022/04/02 07:08:31;;;;;;;15.48;10.68;;;;;;;;;;5045473;28;20025;-50
2022/04/02 07:10:57;;;;;;;14.57;10.95;;;;;;;;;;5046027;28;20029;-46
2022/04/02 07:13:24;;;;;;;15.88;11.48;;;;;;;;;;5045227;28;20028;-51
2022/04/02 07:15:50;;;;;;;17.08;11.55;;;;;;;;;;5044898;28;20068;-49
2022/04/02 07:18:17;;;;;;;14.95;10.88;;;;;;;;;;5042934;28;20045;-50
2022/04/02 07:20:43;;;;;;;15.68;11.18;;;;;;;;;;5046298;28;20040;-49
2022/04/02 07:23:10;;;;;;;15.48;11.07;;;;;;;;;;5038583;28;20061;-48
2022/04/02 07:25:39;;;;;;;15.40;11.45;;;;;;;;;;5026062;28;20116;-51
2022/04/02 07:28:07;;;;;;;17.20;12.02;;;;;;;;;;5027638;28;20056;-47
2022/04/02 07:30:36;;;;;;;16.63;12.02;;;;;;;;;;5045536;28;20022;-50
2022/04/02 07:33:03;;;;;;;16.38;11.18;;;;;;;;;;5046351;28;20492;-48
2022/04/02 07:35:47;;;;;;;14.25;10.23;;;;;;;;;;5045955;28;20029;-50
2022/04/02 07:38:20;;;;;;;13.65;10.27;;;;;;;;;;5044270;28;20033;-49
2022/04/02 07:40:53;;;;;;;13.93;10.07;;;;;;;;;;5026201;28;20033;-50
2022/04/02 07:43:32;;;;;;;14.95;10.75;;;;;;;;;;5025826;28;20025;-47
2022/04/02 07:46:06;;;;;;;14.30;11.43;;;;;;;;;;5026076;28;20021;-48
2022/04/02 07:48:36;;;;;;;13.27;9.95;;;;;;;;;;5025911;28;20581;-49
2022/04/02 07:51:06;;;;;;;12.57;10.05;;;;;;;;;;5034723;28;20115;-50
2022/04/02 07:53:36;;;;;;;10.73;8.68;;;;;;;;;;5032130;28;20041;-48
2022/04/02 07:56:04;;;;;;;12.23;9.23;;;;;;;;;;5029361;28;20544;-48
2022/04/02 07:58:34;;;;;;;10.50;8.25;;;;;;;;;;5034609;28;20122;-47
2022/04/02 08:01:03;;;;;;;13.13;9.00;;;;;;;;;;5045973;28;20112;-48
2022/04/02 08:03:30;;;;;;;11.32;9.00;;;;;;;;;;5045387;28;20144;-50
2022/04/02 08:05:57;;;;;;;10.48;8.23;;;;;;;;;;5034195;28;20026;-49
2022/04/02 08:08:26;;;;;;;13.10;9.02;;;;;;;;;;5044019;28;20400;-46
2022/04/02 08:10:53;;;;;;;11.82;9.13;;;;;;;;;;5045068;28;20504;-50
2022/04/02 08:13:20;;;;;;;10.75;8.68;;;;;;;;;;5037352;28;20026;-49
2022/04/02 08:15:47;;;;;;;10.38;8.10;;;;;;;;;;5043655;28;20032;-49
2022/04/02 08:18:17;;;;;;;11.18;8.15;;;;;;;;;;5035735;28;20087;-46
2022/04/02 08:20:43;;;;;;;10.43;7.97;;;;;;;;;;5038646;28;20036;-47
2022/04/02 08:23:10;;;;;;;8.95;7.57;;;;;;;;;;5042219;28;20037;-46
2022/04/02 08:25:36;;;;;;;8.85;6.97;;;;;;;;;;5039231;28;20056;-50
2022/04/02 08:28:13;;;;;;;9.05;7.50;;;;;;;;;;5044840;28;20048;-48
2022/04/02 08:30:44;;;;;;;9.77;7.40;;;;;;;;;;5033012;28;20021;-48
2022/04/02 08:33:21;;;;;;;9.27;6.80;;;;;;;;;;5041635;28;20037;-46
2022/04/02 08:35:47;;;;;;;9.27;7.20;;;;;;;;;;5034290;28;20079;-47
2022/04/02 08:38:21;;;;;;;8.15;6.38;;;;;;;;;;5040534;28;20033;-46
2022/04/02 08:41:04;;;;;;;9.02;7.25;;;;;;;;;;5030960;28;20440;-47
2022/04/02 08:43:48;;;;;;;9.70;6.93;;;;;;;;;;5032857;28;20075;-47
2022/04/02 08:46:14;;;;;;;;;;;;;;;;;;5042835;28;20025;-45
2022/04/02 08:49:00;;;;;;;8.43;5.88;;;;;;;;;;5043705;28;19912;-48
2022/04/02 08:51:35;;;;;;;10.65;7.38;;;;;;;;;;5034754;28;20029;-48
2022/04/02 08:54:06;;;;;;;10.02;7.30;;;;;;;;;;5041616;28;20520;-46
2022/04/02 08:56:35;;;;;;;9.57;6.68;;;;;;;;;;5037700;28;20036;-45
2022/04/02 08:59:01;;;;;;;10.60;7.28;;;;;;;;;;5042917;28;20542;-48
2022/04/02 09:01:28;;;;;;;9.73;6.43;;;;;;;;;;5030167;28;20037;-46
2022/04/02 09:04:00;;;;;;;9.10;6.63;;;;;;;;;;5031034;28;20080;-46
2022/04/02 09:06:46;;;;;;;9.25;6.55;;;;;;;;;;5040089;28;20117;-46
2022/04/02 09:09:31;;;;;;;9.90;6.30;;;;;;;;;;5037577;28;20520;-47
2022/04/02 09:11:57;;;;;;;10.35;6.95;;;;;;;;;;5035812;28;20029;-49
2022/04/02 09:14:26;;;;;;;10.38;7.07;;;;;;;;;;5046951;28;20021;-46
2022/04/02 09:17:23;;;;;;;8.50;6.20;;;;;;;;;;5041582;28;20113;-45
2022/04/02 09:20:01;;;;;;;12.00;8.52;;;;;;;;;;5036936;28;20068;-46
2022/04/02 09:22:35;;;;;;;12.35;8.10;;;;;;;;;;5039226;28;20075;-46
2022/04/02 09:25:01;;;;;;;11.63;7.72;;;;;;;;;;5028105;28;20022;-45
2022/04/02 09:27:31;;;;;;;10.95;6.70;;;;;;;;;;5028067;28;20060;-46
2022/04/02 09:30:09;;;;;;;10.13;7.05;;;;;;;;;;5031252;28;20032;-45
2022/04/02 09:32:48;;;;;;;12.25;7.10;;;;;;;;;;5047123;28;20025;-46
2022/04/02 09:35:21;;;;;;;10.00;7.32;;;;;;;;;;5045976;28;20029;-45
2022/04/02 09:38:05;;;;;;;10.27;6.67;;;;;;;;;;5046960;28;20037;-45
2022/04/02 09:40:51;;;;;;;9.52;6.65;;;;;;;;;;5033632;28;20052;-44
2022/04/02 09:43:26;;;;;;;11.98;7.45;;;;;;;;;;5035046;28;20485;-46
2022/04/02 09:46:07;;;;;;;9.18;6.68;;;;;;;;;;5029970;28;20060;-47
2022/04/02 09:48:42;;;;;;;9.32;6.65;;;;;;;;;;5026158;28;20440;-46
2022/04/02 09:51:11;;;;;;;8.35;5.53;;;;;;;;;;5031292;28;20013;-45
2022/04/02 09:53:42;;;;;;;7.80;5.55;;;;;;;;;;5045981;28;20048;-46
2022/04/02 09:56:26;;;;;;;8.52;6.32;;;;;;;;;;5041502;28;20021;-45
2022/04/02 09:59:06;;;;;;;9.30;6.57;;;;;;;;;;5037388;28;20132;-46
2022/04/02 10:01:39;;;;;;;9.85;7.10;;;;;;;;;;5033844;28;20033;-46
2022/04/02 10:04:08;;;;;;;9.02;7.00;;;;;;;;;;5044639;28;20028;-46
2022/04/02 10:06:41;;;;;;;8.07;6.55;;;;;;;;;;5037253;28;20029;-45
2022/04/02 10:09:07;;;;;;;7.38;5.53;;;;;;;;;;5046929;28;20033;-48
2022/04/02 10:11:34;;;;;;;7.55;5.35;;;;;;;;;;5047389;28;20054;-46
2022/04/02 10:14:02;;;;;;;8.15;6.18;;;;;;;;;;5048316;28;20060;-46
2022/04/02 10:16:29;;;;;;;7.97;6.32;;;;;;;;;;5047830;28;20440;-46
2022/04/02 10:18:56;;;;;;;11.38;6.88;;;;;;;;;;5042729;28;20040;-45
2022/04/02 10:21:22;;;;;;;9.85;6.40;;;;;;;;;;5038464;28;20025;-45
2022/04/02 10:23:53;;;;;;;8.52;5.82;;;;;;;;;;5048661;28;20025;-45
2022/04/02 10:26:20;;;;;;;7.57;5.47;;;;;;;;;;5043198;28;20435;-45
2022/04/02 10:28:54;;;;;;;6.35;5.20;;;;;;;;;;5041466;28;20029;-48
2022/04/02 10:31:26;;;;;;;7.38;5.78;;;;;;;;;;5042713;28;20059;-46
2022/04/02 10:33:53;;;;;;;8.50;5.97;;;;;;;;;;5046877;28;20044;-46
2022/04/02 10:36:22;;;;;;;8.25;5.78;;;;;;;;;;5047683;28;20104;-46
2022/04/02 10:38:51;;;;;;;8.80;5.95;;;;;;;;;;5048299;28;20412;-45
2022/04/02 10:41:18;;;;;;;8.00;6.40;;;;;;;;;;5047947;28;20025;-45
2022/04/02 10:43:51;;;;;;;10.23;7.05;;;;;;;;;;5044242;28;20026;-46
2022/04/02 10:46:22;;;;;;;8.45;6.50;;;;;;;;;;5027093;28;20033;-46
2022/04/02 10:48:52;;;;;;;8.50;5.88;;;;;;;;;;5028174;28;20040;-46
2022/04/02 10:51:22;;;;;;;9.45;6.07;;;;;;;;;;5028022;28;20022;-46
2022/04/02 10:53:50;;;;;;;7.55;6.03;;;;;;;;;;5028238;28;20064;-50
2022/04/02 10:56:17;;;;;;;7.10;5.63;;;;;;;;;;5027900;28;20056;-46
2022/04/02 10:58:48;;;;;;;7.72;5.65;;;;;;;;;;5046771;28;20460;-50
2022/04/02 11:01:18;;;;;;;8.07;6.10;;;;;;;;;;5064246;28;20024;-47
2022/04/02 11:03:47;;;;;;;7.55;5.60;;;;;;;;;;5067657;28;20040;-46
2022/04/02 11:06:34;;;;;;;7.32;5.65;;;;;;;;;;5027265;28;20017;-45
2022/04/02 11:09:00;;;;;;;6.75;4.93;;;;;;;;;;5044738;28;20030;-46
2022/04/02 11:11:27;;;;;;;5.95;4.35;;;;;;;;;;5031319;28;20026;-48
2022/04/02 11:14:02;;;;;;;7.35;5.20;;;;;;;;;;5030415;28;20041;-46
2022/04/02 11:16:40;;;;;;;8.43;6.35;;;;;;;;;;5033040;28;20033;-47
2022/04/02 11:22:01;;;;;;;14.63;9.20;;;;;;;;;;5028596;28;20043;-46
2022/04/02 11:24:31;;;;;;;11.27;8.13;;;;;;;;;;5026276;28;20026;-46
2022/04/02 11:26:58;;;;;;;10.68;7.97;;;;;;;;;;5041588;28;20132;-46
2022/04/02 11:29:25;;;;;;;9.73;7.28;;;;;;;;;;5046329;28;20048;-46
2022/04/02 11:31:51;;;;;;;9.75;7.30;;;;;;;;;;5038242;28;20055;-46
2022/04/02 11:34:19;;;;;;;8.00;6.28;;;;;;;;;;5033965;28;20029;-46
2022/04/02 11:36:47;;;;;;;8.00;5.85;;;;;;;;;;5042293;28;20057;-50
2022/04/02 11:39:24;;;;;;;6.95;5.93;;;;;;;;;;5034312;28;20038;-45
2022/04/02 11:41:55;;;;;;;7.55;5.80;;;;;;;;;;5031634;28;20084;-48
2022/04/02 11:44:23;;;;;;;7.82;6.35;;;;;;;;;;5029999;28;20026;-47
2022/04/02 11:47:00;;;;;;;7.18;6.05;;;;;;;;;;5027786;28;20037;-46
2022/04/02 11:49:31;;;;;;;7.03;5.57;;;;;;;;;;5035562;28;20033;-46
2022/04/02 11:52:00;;;;;;;8.13;5.90;;;;;;;;;;5031284;28;20028;-47
2022/04/02 11:54:27;;;;;;;6.70;5.75;;;;;;;;;;5029080;28;20022;-46
2022/04/02 11:57:05;;;;;;;9.68;6.90;;;;;;;;;;5044844;28;20037;-50
2022/04/02 11:59:34;;;;;;;9.00;6.63;;;;;;;;;;5033108;28;20423;-47
2022/04/02 12:02:01;;;;;;;6.32;5.68;;;;;;;;;;5039292;28;20043;-47
2022/04/02 12:04:27;;;;;;;8.70;6.88;;;;;;;;;;5050524;28;20017;-49
2022/04/02 12:06:57;;;;;;;8.32;7.20;;;;;;;;;;5050302;28;20510;-49
2022/04/02 12:09:24;;;;;;;11.65;7.07;;;;;;;;;;5039431;28;20527;-46
2022/04/02 12:11:52;;;;;;;10.55;7.85;;;;;;;;;;5038188;28;20078;-48
2022/04/02 12:14:32;;;;;;;11.68;8.02;;;;;;;;;;5068460;28;20028;-48
2022/04/02 12:17:00;;;;;;;8.95;6.35;;;;;;;;;;5069178;28;20064;-50
2022/04/02 12:19:38;;;;;;;8.32;6.78;;;;;;;;;;5056822;28;20043;-47
2022/04/02 12:22:15;;;;;;;7.63;6.20;;;;;;;;;;5051301;28;20036;-51
2022/04/02 12:24:48;;;;;;;7.93;6.47;;;;;;;;;;5044207;28;20100;-46
2022/04/02 12:27:16;;;;;;;7.20;6.00;;;;;;;;;;5038455;28;20029;-48
2022/04/02 12:29:46;;;;;;;7.97;6.03;;;;;;;;;;5047645;28;20083;-49
2022/04/02 12:32:12;;;;;;;7.07;5.68;;;;;;;;;;5035064;28;20036;-48
2022/04/02 12:34:39;;;;;;;9.02;6.55;;;;;;;;;;5029067;28;20544;-49
2022/04/02 12:37:05;;;;;;;6.80;5.68;;;;;;;;;;5031293;28;20562;-49
2022/04/02 12:39:33;;;;;;;6.60;5.25;;;;;;;;;;5029194;28;20076;-47
2022/04/02 12:41:59;;;;;;;8.85;6.68;;;;;;;;;;5029538;28;20046;-50
2022/04/02 12:44:25;;;;;;;6.25;5.25;;;;;;;;;;5029059;28;20029;-48
2022/04/02 12:46:52;;;;;;;7.18;5.85;;;;;;;;;;5034119;28;20083;-49
2022/04/02 12:49:32;;;;;;;6.20;5.40;;;;;;;;;;5041174;28;20033;-48
2022/04/02 12:52:11;;;;;;;7.72;5.93;;;;;;;;;;5049193;28;20100;-45
2022/04/02 12:54:37;;;;;;;6.95;5.55;;;;;;;;;;5048497;28;20028;-50
2022/04/02 12:57:15;;;;;;;5.85;5.25;;;;;;;;;;5048404;28;20025;-48
2022/04/02 12:59:43;;;;;;;6.85;5.55;;;;;;;;;;5041480;28;20055;-47
2022/04/02 13:02:11;;;;;;;7.50;6.07;;;;;;;;;;5034307;28;20109;-49
2022/04/02 13:04:41;;;;;;;6.07;4.95;;;;;;;;;;5032026;28;20076;-48
2022/04/02 13:07:12;;;;;;;6.30;5.45;;;;;;;;;;5042703;28;20500;-47
2022/04/02 13:09:40;;;;;;;7.45;5.63;;;;;;;;;;5030909;28;20479;-49
2022/04/02 13:12:09;;;;;;;7.72;5.72;;;;;;;;;;5029670;28;20021;-48
2022/04/02 13:14:35;;;;;;;6.60;5.25;;;;;;;;;;5028641;28;20030;-51
2022/04/02 13:17:08;;;;;;;6.68;4.95;;;;;;;;;;5033446;28;20032;-49
2022/04/02 13:22:42;;;;;;;6.25;4.80;;;;;;;;;;5036518;28;20831;-50
2022/04/02 13:25:15;;;;;;;5.93;4.78;;;;;;;;;;5037997;28;20021;-46
2022/04/02 13:27:53;;;;;;;8.35;6.15;;;;;;;;;;5036381;28;20037;-47
2022/04/02 13:30:20;;;;;;;6.43;5.50;;;;;;;;;;5029464;28;20071;-47
2022/04/02 13:32:56;;;;;;;6.00;5.18;;;;;;;;;;5034838;28;20407;-48
2022/04/02 13:35:36;;;;;;;8.00;5.28;;;;;;;;;;5036373;28;20041;-50
2022/04/02 13:38:20;;;;;;;6.93;5.68;;;;;;;;;;5034371;28;20029;-45
2022/04/02 13:40:50;;;;;;;8.68;5.65;;;;;;;;;;5033776;28;20041;-50
2022/04/02 13:43:37;;;;;;;6.50;5.45;;;;;;;;;;5029202;28;20036;-50
2022/04/02 13:46:07;;;;;;;6.47;4.90;;;;;;;;;;5027229;28;20021;-48
2022/04/02 13:48:38;;;;;;;6.63;4.63;;;;;;;;;;5027783;28;20088;-48
2022/04/02 13:51:11;;;;;;;7.00;4.88;;;;;;;;;;5040492;28;20104;-50
2022/04/02 13:53:38;;;;;;;8.63;5.97;;;;;;;;;;5036111;28;20047;-50
2022/04/02 13:56:09;;;;;;;8.60;6.07;;;;;;;;;;5036996;28;20029;-47
2022/04/02 13:58:39;;;;;;;7.57;5.75;;;;;;;;;;5032966;28;20542;-49
2022/04/02 14:01:11;;;;;;;9.48;6.25;;;;;;;;;;5028409;28;20029;-51
2022/04/02 14:03:44;;;;;;;9.60;6.70;;;;;;;;;;5030150;28;20041;-48
2022/04/02 14:06:13;;;;;;;6.97;5.63;;;;;;;;;;5034288;28;20021;-49
2022/04/02 14:08:40;;;;;;;7.43;6.03;;;;;;;;;;5028532;28;20044;-49
2022/04/02 14:11:26;;;;;;;8.27;6.70;;;;;;;;;;5033883;28;20040;-49
2022/04/02 14:14:05;;;;;;;8.05;6.10;;;;;;;;;;5033631;28;20037;-51
2022/04/02 14:16:40;;;;;;;8.10;6.60;;;;;;;;;;5038446;28;20047;-48
2022/04/02 14:19:08;;;;;;;10.35;6.88;;;;;;;;;;5043670;28;20029;-47
2022/04/02 14:21:35;;;;;;;9.60;6.82;;;;;;;;;;5041562;28;20397;-47
2022/04/02 14:24:12;;;;;;;7.90;6.35;;;;;;;;;;5035201;28;20035;-50
2022/04/02 14:26:41;;;;;;;8.02;6.35;;;;;;;;;;5037019;28;20040;-48
2022/04/02 14:29:10;;;;;;;7.55;5.95;;;;;;;;;;5028042;28;20018;-46
2022/04/02 14:31:56;;;;;;;8.20;6.03;;;;;;;;;;5026315;28;20469;-49
2022/04/02 14:34:46;;;;;;;8.65;5.75;;;;;;;;;;5035783;28;20110;-47
2022/04/02 14:37:31;;;;;;;8.90;6.47;;;;;;;;;;5033636;28;20056;-48
2022/04/02 14:40:12;;;;;;;6.80;5.30;;;;;;;;;;5036731;28;20026;-49
2022/04/02 14:43:04;;;;;;;6.03;4.72;;;;;;;;;;5029285;28;20037;-48
2022/04/02 14:45:33;;;;;;;5.22;4.15;;;;;;;;;;5033821;28;20108;-46
2022/04/02 14:48:18;;;;;;;6.05;4.82;;;;;;;;;;5035857;28;20451;-49
2022/04/02 14:50:47;;;;;;;7.03;5.40;;;;;;;;;;5032584;28;20028;-53
2022/04/02 14:53:24;;;;;;;5.55;4.55;;;;;;;;;;5030172;28;20607;-50